Time;durP1;ratioP1;P1;durP2;ratioP2;P2;SDS_P1;SDS_P2;PMS_P1;PMS_P2;Temp;Humidity;BMP_temperature;BMP_pressure;BME280_temperature;BME280_humidity;BME280_pressure;Samples;Min_cycle;Max_cycle;Signal;HPM_P1;HPM_P2
2021/12/12 00:01:29;;;;;;;12.77;7.13;;;5.20;99.90;;;;;;4953898;28;20031;-68
2021/12/12 00:04:07;;;;;;;9.75;6.35;;;5.20;99.90;;;;;;4954765;29;20381;-69
2021/12/12 00:06:34;;;;;;;9.88;6.60;;;5.20;99.90;;;;;;4954499;29;20525;-68
2021/12/12 00:09:12;;;;;;;7.43;5.05;;;5.20;99.90;;;;;;4951140;28;20028;-68
2021/12/12 00:11:40;;;;;;;7.65;6.05;;;5.20;99.90;;;;;;4953650;28;20090;-68
2021/12/12 00:14:22;;;;;;;7.63;5.57;;;5.20;99.90;;;;;;4953626;28;20031;-68
2021/12/12 00:16:48;;;;;;;9.50;7.50;;;5.20;99.90;;;;;;4953708;28;20031;-69
2021/12/12 00:19:14;;;;;;;10.75;6.57;;;5.20;99.90;;;;;;4952870;28;20046;-70
2021/12/12 00:21:46;;;;;;;8.80;6.25;;;5.20;99.90;;;;;;4952790;28;20031;-69
2021/12/12 00:24:13;;;;;;;9.25;6.55;;;5.20;99.90;;;;;;4952546;29;20066;-69
2021/12/12 00:26:41;;;;;;;11.27;7.72;;;5.20;99.90;;;;;;4967926;28;20085;-71
2021/12/12 00:29:08;;;;;;;9.52;6.35;;;5.20;99.90;;;;;;4950447;28;20050;-68
2021/12/12 00:31:34;;;;;;;8.73;6.13;;;5.20;99.90;;;;;;4952083;28;20038;-70
2021/12/12 00:34:01;;;;;;;14.57;5.82;;;5.20;99.90;;;;;;4954097;28;20107;-69
2021/12/12 00:36:30;;;;;;;8.32;5.72;;;5.30;99.90;;;;;;4953445;28;20641;-69
2021/12/12 00:39:12;;;;;;;9.30;6.70;;;5.20;99.90;;;;;;4952196;28;20027;-69
2021/12/12 00:41:45;;;;;;;9.27;6.63;;;5.20;99.90;;;;;;4946029;28;20027;-69
2021/12/12 00:44:14;;;;;;;8.30;6.25;;;5.20;99.90;;;;;;4946913;28;20536;-69
2021/12/12 00:46:40;;;;;;;8.80;5.50;;;5.20;99.90;;;;;;4949162;28;20039;-69
2021/12/12 00:49:06;;;;;;;7.57;5.30;;;5.20;99.90;;;;;;4950927;28;20024;-69
2021/12/12 00:51:35;;;;;;;6.28;4.93;;;5.20;99.90;;;;;;4952371;28;20039;-69
2021/12/12 00:54:02;;;;;;;8.55;7.03;;;5.30;99.90;;;;;;4950894;28;20037;-70
2021/12/12 00:56:28;;;;;;;9.15;6.72;;;5.40;99.90;;;;;;4951825;28;20027;-69
2021/12/12 00:58:54;;;;;;;7.80;5.35;;;5.50;99.90;;;;;;4951857;28;20046;-69
2021/12/12 01:01:27;;;;;;;9.00;5.00;;;5.50;99.90;;;;;;4950136;28;20042;-69
2021/12/12 01:04:01;;;;;;;8.52;5.35;;;5.60;99.90;;;;;;4950334;28;20058;-69
2021/12/12 01:06:28;;;;;;;8.27;5.53;;;5.60;99.90;;;;;;4949564;28;20134;-69
2021/12/12 01:08:57;;;;;;;8.15;5.93;;;5.60;99.90;;;;;;4948746;28;20027;-69
2021/12/12 01:11:29;;;;;;;9.63;6.38;;;5.60;99.90;;;;;;4950905;28;20039;-69
2021/12/12 01:13:56;;;;;;;9.50;6.72;;;5.60;99.90;;;;;;4948130;28;20098;-68
2021/12/12 01:16:37;;;;;;;8.43;5.90;;;5.60;99.90;;;;;;4950566;28;20043;-69
2021/12/12 01:19:10;;;;;;;7.28;5.35;;;5.60;99.90;;;;;;4951798;28;20113;-69
2021/12/12 01:21:40;;;;;;;9.30;6.05;;;5.60;99.90;;;;;;4951543;28;20032;-69
2021/12/12 01:24:42;;;;;;;6.90;4.82;;;5.50;99.90;;;;;;4951567;28;20034;-68
2021/12/12 01:27:10;;;;;;;8.60;5.77;;;5.50;99.90;;;;;;4929651;28;20058;-69
2021/12/12 01:29:39;;;;;;;7.13;5.57;;;5.50;99.90;;;;;;4949789;28;20289;-68
2021/12/12 01:32:12;;;;;;;10.07;5.97;;;5.60;99.90;;;;;;4951874;28;20030;-68
2021/12/12 01:34:39;;;;;;;9.20;4.95;;;5.50;99.90;;;;;;4950179;29;20027;-68
2021/12/12 01:40:16;;;;;;;5.35;4.30;;;5.50;99.90;;;;;;4950728;28;20061;-69
2021/12/12 01:43:10;;;;;;;8.10;5.85;;;5.60;99.90;;;;;;4950253;28;20046;-69
2021/12/12 01:45:45;;;;;;;10.73;6.93;;;5.50;99.90;;;;;;4946915;28;20055;-68
2021/12/12 01:48:35;;;;;;;8.48;6.00;;;5.50;99.90;;;;;;4946371;28;20038;-68
2021/12/12 01:51:04;;;;;;;7.18;5.43;;;5.50;99.90;;;;;;4948325;28;20023;-71
2021/12/12 01:53:33;;;;;;;8.88;6.55;;;5.50;99.90;;;;;;4950334;28;20118;-68
2021/12/12 01:56:29;;;;;;;7.68;4.75;;;5.40;99.90;;;;;;4946972;28;20098;-69
2021/12/12 01:59:01;;;;;;;9.10;5.38;;;5.40;99.90;;;;;;4948516;28;20074;-69
2021/12/12 02:01:44;;;;;;;8.38;5.80;;;5.40;99.90;;;;;;4947172;28;20027;-68
2021/12/12 02:04:17;;;;;;;10.10;5.82;;;5.40;99.90;;;;;;4947293;28;20035;-69
2021/12/12 02:06:45;;;;;;;7.80;5.63;;;5.30;99.90;;;;;;4950762;28;20110;-69
2021/12/12 02:09:13;;;;;;;8.93;6.20;;;5.30;99.90;;;;;;4943097;28;20126;-69
2021/12/12 02:11:39;;;;;;;11.43;6.20;;;5.30;99.90;;;;;;4947149;28;20486;-69
2021/12/12 02:14:11;;;;;;;10.32;5.60;;;5.20;99.90;;;;;;4951443;28;20454;-69
2021/12/12 02:16:45;;;;;;;7.32;4.63;;;5.30;99.90;;;;;;4940980;28;20481;-69
2021/12/12 02:19:11;;;;;;;7.40;5.50;;;5.30;99.90;;;;;;4951369;28;20242;-68
2021/12/12 02:22:01;;;;;;;10.27;7.13;;;5.30;99.90;;;;;;4951694;28;20067;-70
2021/12/12 02:38:10;;;;;;;8.95;6.10;;;5.30;99.90;;;;;;4946363;28;20031;-70
2021/12/12 02:40:42;;;;;;;8.48;5.95;;;5.30;99.90;;;;;;4949130;28;20049;-69
2021/12/12 02:43:11;;;;;;;7.45;4.53;;;5.30;99.90;;;;;;4949844;28;20030;-70
2021/12/12 02:45:37;;;;;;;8.07;5.60;;;5.40;99.90;;;;;;4950978;28;20066;-68
2021/12/12 02:48:06;;;;;;;8.75;4.93;;;5.40;99.90;;;;;;4949622;28;20024;-69
2021/12/12 02:50:42;;;;;;;7.65;5.50;;;5.40;99.90;;;;;;4950051;28;20117;-69
2021/12/12 02:53:23;;;;;;;8.05;5.43;;;5.40;99.90;;;;;;4947876;29;20027;-69
2021/12/12 02:55:58;;;;;;;7.03;4.72;;;5.40;99.90;;;;;;4949667;28;20035;-68
2021/12/12 02:58:25;;;;;;;8.07;5.85;;;5.50;99.90;;;;;;4950986;28;20023;-69
2021/12/12 03:01:21;;;;;;;6.72;4.50;;;5.50;99.90;;;;;;4948158;28;20210;-68
2021/12/12 03:03:49;;;;;;;6.53;5.03;;;5.50;99.90;;;;;;4950466;28;20023;-69
2021/12/12 03:06:19;;;;;;;7.50;4.95;;;5.50;99.90;;;;;;4950191;28;20572;-69
2021/12/12 03:08:51;;;;;;;6.60;5.32;;;5.50;99.90;;;;;;4949478;28;20139;-69
2021/12/12 03:11:17;;;;;;;7.93;6.10;;;5.50;99.90;;;;;;4950087;28;20074;-69
2021/12/12 03:13:43;;;;;;;6.85;4.97;;;5.50;99.90;;;;;;4952697;28;20130;-68
2021/12/12 03:16:11;;;;;;;6.55;5.15;;;5.40;99.90;;;;;;4951987;28;20401;-69
2021/12/12 03:18:41;;;;;;;6.63;5.50;;;5.40;99.90;;;;;;4952655;28;20031;-70
2021/12/12 03:21:28;;;;;;;7.20;5.78;;;5.40;99.90;;;;;;4953154;28;20035;-69
2021/12/12 03:23:56;;;;;;;8.45;6.82;;;5.40;99.90;;;;;;4953661;28;20110;-71
2021/12/12 03:26:22;;;;;;;7.57;5.18;;;5.40;99.90;;;;;;4952684;28;20024;-69
2021/12/12 03:28:50;;;;;;;7.40;5.00;;;5.30;99.90;;;;;;4953132;28;20047;-69
2021/12/12 03:31:31;;;;;;;9.52;5.20;;;5.30;99.90;;;;;;4954139;28;20035;-69
2021/12/12 03:33:59;;;;;;;8.52;6.53;;;5.30;99.90;;;;;;4953701;28;20054;-69
2021/12/12 03:36:25;;;;;;;6.35;5.57;;;5.30;99.90;;;;;;4952151;28;20070;-70
2021/12/12 03:39:07;;;;;;;7.97;6.43;;;5.30;99.90;;;;;;4952461;28;20377;-70
2021/12/12 03:41:35;;;;;;;7.10;5.75;;;5.30;99.90;;;;;;4953717;28;20100;-70
2021/12/12 03:44:06;;;;;;;7.78;6.10;;;5.30;99.90;;;;;;4950049;29;20038;-69
2021/12/12 03:46:34;;;;;;;9.38;6.15;;;5.20;99.90;;;;;;4952485;28;20444;-70
2021/12/12 03:49:00;;;;;;;10.52;6.05;;;5.20;99.90;;;;;;4955030;28;20062;-70
2021/12/12 03:51:29;;;;;;;7.82;5.97;;;5.20;99.90;;;;;;4952886;28;20086;-69
2021/12/12 03:53:56;;;;;;;6.95;5.00;;;5.20;99.90;;;;;;4953213;28;20078;-69
2021/12/12 03:56:22;;;;;;;5.97;5.15;;;5.20;99.90;;;;;;4952945;28;20209;-70
2021/12/12 03:58:49;;;;;;;8.88;5.60;;;5.20;99.90;;;;;;4953135;28;20039;-69
2021/12/12 04:01:23;;;;;;;10.60;6.70;;;5.10;99.90;;;;;;4950968;28;20039;-69
2021/12/12 04:03:52;;;;;;;8.52;6.80;;;5.10;99.90;;;;;;4953106;28;20114;-69
2021/12/12 04:06:21;;;;;;;7.80;5.07;;;4.90;99.90;;;;;;4953586;28;20090;-70
2021/12/12 04:08:50;;;;;;;9.85;5.85;;;4.80;99.90;;;;;;4950891;28;20023;-69
2021/12/12 04:11:30;;;;;;;7.97;5.72;;;4.70;99.90;;;;;;4952835;28;20505;-69
2021/12/12 04:13:56;;;;;;;7.57;5.55;;;4.70;99.90;;;;;;4952824;28;20098;-70
2021/12/12 04:16:28;;;;;;;8.05;5.57;;;4.50;99.90;;;;;;4950733;28;20031;-68
2021/12/12 04:18:54;;;;;;;8.90;7.38;;;4.50;99.90;;;;;;4951614;28;20027;-69
2021/12/12 04:21:23;;;;;;;6.85;5.65;;;4.50;99.90;;;;;;4953214;28;20035;-69
2021/12/12 04:23:49;;;;;;;6.85;5.22;;;4.60;99.90;;;;;;4952597;28;20031;-69
2021/12/12 04:26:20;;;;;;;6.22;5.03;;;4.50;99.90;;;;;;4952791;28;20031;-69
2021/12/12 04:28:55;;;;;;;9.02;5.03;;;4.40;99.90;;;;;;4951214;28;20541;-68
2021/12/12 04:31:21;;;;;;;5.55;4.70;;;4.40;99.90;;;;;;4952416;28;20357;-69
2021/12/12 04:33:46;;;;;;;7.47;5.10;;;4.40;99.90;;;;;;4952817;28;20201;-69
2021/12/12 04:36:12;;;;;;;7.35;5.93;;;4.40;99.90;;;;;;4952392;28;20500;-68
2021/12/12 04:38:38;;;;;;;6.32;5.10;;;4.50;99.90;;;;;;4948927;28;20102;-70
2021/12/12 04:41:04;;;;;;;10.00;5.60;;;4.40;99.90;;;;;;4951032;29;20075;-69
2021/12/12 04:43:29;;;;;;;5.93;4.90;;;4.40;99.90;;;;;;4952668;28;20058;-69
2021/12/12 04:46:11;;;;;;;5.82;4.35;;;4.30;99.90;;;;;;4950213;28;20027;-69
2021/12/12 04:51:50;;;;;;;6.35;4.68;;;4.20;99.90;;;;;;4950894;28;20097;-68
2021/12/12 04:54:42;;;;;;;5.68;4.82;;;4.10;99.90;;;;;;4951134;28;20031;-69
2021/12/12 04:57:11;;;;;;;7.53;5.68;;;4.10;99.90;;;;;;4950978;28;20043;-69
2021/12/12 05:00:17;;;;;;;5.15;4.60;;;4.00;99.90;;;;;;4951810;28;20035;-69
2021/12/12 05:02:49;;;;;;;7.00;4.45;;;4.00;99.90;;;;;;4950382;28;20027;-69
2021/12/12 05:05:24;;;;;;;5.28;4.68;;;4.00;99.90;;;;;;4951516;28;20035;-69
2021/12/12 05:08:25;;;;;;;5.10;4.60;;;4.00;99.90;;;;;;4949906;28;20530;-70
2021/12/12 05:10:57;;;;;;;4.60;4.10;;;4.00;99.90;;;;;;4938437;28;20035;-69
2021/12/12 05:13:44;;;;;;;;;;;4.10;99.90;;;;;;4950924;28;20023;-69
2021/12/12 05:16:18;;;;;;;8.88;5.13;;;4.10;99.90;;;;;;4951092;28;19917;-69
2021/12/12 05:18:50;;;;;;;8.20;6.00;;;4.00;99.90;;;;;;4951266;28;20429;-71
2021/12/12 05:21:18;;;;;;;;;;;3.90;99.90;;;;;;4951944;28;20031;-69
2021/12/12 05:23:48;;;;;;;7.47;5.32;;;3.90;99.90;;;;;;4951406;29;19914;-69
2021/12/12 05:26:25;;;;;;;6.05;4.70;;;3.80;99.90;;;;;;4950965;28;20585;-68
2021/12/12 05:29:00;;;;;;;6.65;4.78;;;3.70;99.90;;;;;;4950772;28;20031;-68
2021/12/12 05:31:28;;;;;;;6.65;5.18;;;3.70;99.90;;;;;;4947956;28;20120;-68
2021/12/12 05:33:55;;;;;;;7.70;5.72;;;3.80;99.90;;;;;;4950699;28;20031;-69
2021/12/12 05:36:22;;;;;;;7.85;6.10;;;3.90;99.90;;;;;;4951512;28;20046;-69
2021/12/12 05:38:48;;;;;;;11.23;8.05;;;3.80;99.90;;;;;;4948250;28;20046;-69
2021/12/12 05:41:18;;;;;;;8.27;6.15;;;3.90;99.90;;;;;;4951226;28;20049;-69
2021/12/12 05:43:46;;;;;;;8.65;5.93;;;4.00;99.90;;;;;;4952219;28;20024;-69
2021/12/12 05:46:18;;;;;;;8.95;6.00;;;4.00;99.90;;;;;;4951778;28;20035;-69
2021/12/12 05:48:44;;;;;;;;;;;4.00;99.90;;;;;;4949353;28;20385;-71
2021/12/12 05:51:10;;;;;;;7.40;5.38;;;3.90;99.90;;;;;;4951129;28;19957;-70
2021/12/12 05:53:36;;;;;;;7.40;5.72;;;3.90;99.90;;;;;;4951213;28;20085;-70
2021/12/12 05:56:02;;;;;;;7.38;5.55;;;4.10;99.90;;;;;;4950939;28;20110;-70
2021/12/12 05:58:30;;;;;;;9.48;5.88;;;4.10;99.90;;;;;;4951310;28;20419;-70
2021/12/12 06:01:00;;;;;;;6.57;5.00;;;4.10;99.90;;;;;;4951273;28;20470;-71
2021/12/12 06:03:33;;;;;;;8.32;5.60;;;4.20;99.90;;;;;;4951240;28;20050;-69
2021/12/12 06:06:05;;;;;;;7.00;5.18;;;4.50;99.90;;;;;;4948311;28;20028;-69
2021/12/12 06:08:31;;;;;;;9.85;6.45;;;4.70;99.90;;;;;;4948617;28;20051;-71
2021/12/12 06:10:59;;;;;;;8.25;6.45;;;4.70;99.90;;;;;;4949916;28;20071;-69
2021/12/12 06:13:25;;;;;;;7.25;6.25;;;4.70;99.90;;;;;;4951167;28;20121;-71
2021/12/12 06:15:54;;;;;;;7.45;5.40;;;4.70;99.90;;;;;;4951104;28;20027;-71
2021/12/12 06:18:26;;;;;;;10.63;6.80;;;4.70;99.90;;;;;;4949918;28;20390;-69
2021/12/12 06:20:52;;;;;;;;;;;4.70;99.90;;;;;;4951785;28;20027;-70
2021/12/12 06:23:18;;;;;;;7.53;5.93;;;4.70;99.90;;;;;;4950777;28;19915;-70
2021/12/12 06:25:45;;;;;;;7.72;5.40;;;4.70;99.90;;;;;;4951135;28;20381;-70
2021/12/12 06:28:21;;;;;;;6.28;4.88;;;4.70;99.90;;;;;;4950673;28;20031;-69
2021/12/12 06:30:47;;;;;;;6.03;5.07;;;4.70;99.90;;;;;;4950149;28;20020;-69
2021/12/12 06:33:13;;;;;;;9.20;5.85;;;4.60;99.90;;;;;;4950761;28;20054;-69
2021/12/12 06:35:39;;;;;;;6.55;4.82;;;4.50;99.90;;;;;;4951074;28;20117;-70
2021/12/12 06:38:07;;;;;;;6.38;4.78;;;4.60;99.90;;;;;;4949341;28;20110;-69
2021/12/12 06:40:34;;;;;;;6.65;5.13;;;4.70;99.90;;;;;;4949663;28;21581;-69
2021/12/12 06:43:03;;;;;;;5.95;4.45;;;4.70;99.90;;;;;;4949634;28;20034;-70
2021/12/12 06:45:29;;;;;;;6.70;4.22;;;4.70;99.90;;;;;;4949804;28;20023;-68
2021/12/12 06:47:56;;;;;;;7.28;5.30;;;4.60;99.90;;;;;;4947898;28;20031;-70
2021/12/12 06:50:25;;;;;;;8.20;5.93;;;4.50;99.90;;;;;;4953441;28;20027;-69
2021/12/12 06:52:51;;;;;;;9.75;5.53;;;4.40;99.90;;;;;;4954204;28;20038;-71
2021/12/12 06:55:18;;;;;;;9.60;6.15;;;4.40;99.90;;;;;;4954784;28;20382;-70
2021/12/12 06:57:44;;;;;;;8.45;6.00;;;4.40;99.90;;;;;;4954283;28;20023;-71
2021/12/12 07:00:15;;;;;;;8.85;5.38;;;4.20;99.90;;;;;;4953661;28;20078;-71
2021/12/12 07:02:42;;;;;;;8.23;6.20;;;4.10;99.90;;;;;;4952902;28;20036;-69
2021/12/12 07:05:13;;;;;;;9.68;6.45;;;4.10;99.90;;;;;;4952045;28;20035;-70
2021/12/12 07:07:39;;;;;;;9.82;7.45;;;3.90;99.90;;;;;;4952638;28;20517;-69
2021/12/12 07:10:07;;;;;;;11.48;8.23;;;4.00;99.90;;;;;;4954674;28;20043;-70
2021/12/12 07:12:34;;;;;;;10.98;5.95;;;4.00;99.90;;;;;;4952825;28;20304;-69
2021/12/12 07:15:01;;;;;;;8.68;6.45;;;3.90;99.90;;;;;;4952926;28;20034;-70
2021/12/12 07:17:27;;;;;;;7.00;5.50;;;3.90;99.90;;;;;;4951223;28;20032;-71
2021/12/12 07:19:53;;;;;;;8.55;5.65;;;3.90;99.90;;;;;;4952924;28;20477;-69
2021/12/12 07:22:20;;;;;;;9.95;7.22;;;4.00;99.90;;;;;;4955601;28;20046;-69
2021/12/12 07:24:46;;;;;;;13.38;7.50;;;4.10;99.90;;;;;;4952487;28;20512;-69
2021/12/12 07:27:16;;;;;;;8.07;5.80;;;4.10;99.90;;;;;;4953951;28;20288;-70
2021/12/12 07:29:43;;;;;;;8.75;6.07;;;4.00;99.90;;;;;;4952031;28;20030;-70
2021/12/12 07:32:09;;;;;;;8.80;6.25;;;4.00;99.90;;;;;;4954439;28;20031;-70
2021/12/12 07:34:35;;;;;;;8.02;5.13;;;4.10;99.90;;;;;;4954332;28;20030;-70
2021/12/12 07:37:05;;;;;;;8.68;6.53;;;4.40;99.90;;;;;;4950348;28;20039;-70
2021/12/12 07:39:31;;;;;;;9.00;5.70;;;4.40;99.90;;;;;;4953407;28;20031;-70
2021/12/12 07:41:59;;;;;;;6.75;5.18;;;4.50;99.90;;;;;;4953171;28;20118;-71
2021/12/12 07:44:28;;;;;;;5.68;3.92;;;4.60;99.90;;;;;;4953750;28;20019;-69
2021/12/12 07:46:57;;;;;;;6.97;4.18;;;4.80;99.90;;;;;;4952697;28;20038;-69
2021/12/12 07:49:27;;;;;;;8.65;3.47;;;4.90;99.90;;;;;;4950155;28;20058;-69
2021/12/12 07:51:54;;;;;;;4.43;3.85;;;5.20;99.90;;;;;;4952238;28;20027;-69
2021/12/12 07:54:21;;;;;;;7.68;4.60;;;5.30;99.90;;;;;;4953499;28;20055;-69
2021/12/12 07:56:47;;;;;;;4.90;4.40;;;5.30;99.90;;;;;;4952307;28;20030;-69
2021/12/12 07:59:15;;;;;;;12.55;4.20;;;5.40;99.90;;;;;;4953004;28;20110;-69
2021/12/12 08:01:44;;;;;;;5.38;4.05;;;5.50;99.90;;;;;;4950098;28;20555;-69
2021/12/12 08:04:12;;;;;;;6.65;4.30;;;5.60;99.90;;;;;;4952614;28;20035;-68
2021/12/12 08:06:38;;;;;;;4.28;3.85;;;5.60;99.90;;;;;;4951745;28;20034;-70
2021/12/12 08:09:06;;;;;;;10.88;4.25;;;5.60;99.90;;;;;;4952329;28;20031;-68
2021/12/12 08:11:33;;;;;;;5.47;3.85;;;5.60;99.90;;;;;;4951670;28;20365;-69
2021/12/12 08:14:02;;;;;;;4.32;3.55;;;5.60;99.90;;;;;;4947497;28;20379;-71
2021/12/12 08:16:28;;;;;;;3.70;3.22;;;5.70;99.90;;;;;;4951943;28;20027;-70
2021/12/12 08:18:57;;;;;;;4.15;3.75;;;5.80;99.90;;;;;;4952485;28;20127;-70
2021/12/12 08:21:23;;;;;;;5.32;3.85;;;5.90;99.90;;;;;;4953232;28;20481;-72
2021/12/12 08:23:49;;;;;;;3.90;3.53;;;6.10;99.90;;;;;;4951646;28;20057;-70
2021/12/12 08:26:17;;;;;;;8.38;4.97;;;6.10;99.90;;;;;;4952167;28;20023;-70
2021/12/12 08:28:43;;;;;;;4.05;2.80;;;6.50;99.90;;;;;;4953193;28;20023;-70
2021/12/12 08:31:11;;;;;;;7.97;4.55;;;6.90;99.90;;;;;;4951901;28;20452;-71
2021/12/12 08:33:38;;;;;;;8.27;5.30;;;7.30;99.90;;;;;;4951108;28;20473;-69
2021/12/12 08:36:04;;;;;;;10.15;6.43;;;7.50;99.90;;;;;;4949519;28;20367;-67
2021/12/12 08:38:30;;;;;;;9.80;4.68;;;7.70;99.90;;;;;;4953246;28;20054;-66
2021/12/12 08:41:00;;;;;;;6.85;4.38;;;7.70;99.90;;;;;;4953209;28;20085;-71
2021/12/12 08:43:28;;;;;;;8.20;5.03;;;7.70;99.90;;;;;;4948213;28;20119;-67
2021/12/12 08:46:15;;;;;;;6.78;4.05;;;7.80;99.90;;;;;;4952402;28;20037;-66
2021/12/12 08:48:47;;;;;;;6.55;4.07;;;7.70;99.90;;;;;;4950939;28;20030;-65
2021/12/12 08:51:32;;;;;;;4.57;3.28;;;7.80;99.90;;;;;;4953117;28;20031;-69
2021/12/12 08:54:12;;;;;;;4.82;3.67;;;7.80;99.90;;;;;;4953936;28;20022;-66
2021/12/12 08:56:46;;;;;;;4.07;2.88;;;7.90;99.90;;;;;;4953874;28;20020;-68
2021/12/12 08:59:19;;;;;;;3.50;3.05;;;8.00;99.90;;;;;;4953839;28;20058;-68
2021/12/12 09:01:47;;;;;;;8.00;2.85;;;8.30;99.90;;;;;;4953742;28;20042;-68
2021/12/12 09:04:14;;;;;;;3.75;2.88;;;8.30;99.90;;;;;;4953541;28;20082;-65
2021/12/12 09:06:55;;;;;;;2.58;1.90;;;8.30;99.90;;;;;;4953283;28;20019;-69
2021/12/12 09:09:23;;;;;;;4.07;2.80;;;8.20;99.90;;;;;;4952047;28;20027;-68
2021/12/12 09:11:55;;;;;;;3.80;2.60;;;8.20;99.90;;;;;;4951139;28;20034;-67
2021/12/12 09:14:32;;;;;;;3.22;2.60;;;8.10;99.90;;;;;;4951803;28;20043;-71
2021/12/12 09:17:09;;;;;;;2.88;2.58;;;8.10;99.90;;;;;;4946540;28;20054;-66
2021/12/12 09:19:44;;;;;;;4.95;4.25;;;8.10;99.90;;;;;;4960880;28;20027;-70
2021/12/12 09:22:16;;;;;;;4.95;4.15;;;8.00;99.90;;;;;;4956621;28;20033;-66
2021/12/12 09:25:03;;;;;;;6.65;4.88;;;7.90;99.90;;;;;;4953495;28;20555;-67
2021/12/12 09:27:44;;;;;;;4.07;3.33;;;7.90;99.90;;;;;;4962817;28;20106;-68
2021/12/12 09:30:10;;;;;;;5.57;3.13;;;7.80;99.90;;;;;;4955014;28;20034;-65
2021/12/12 09:32:49;;;;;;;4.93;3.72;;;7.80;99.90;;;;;;4960425;28;20027;-68
2021/12/12 09:35:35;;;;;;;4.07;3.58;;;7.80;99.90;;;;;;4956849;28;20046;-70
2021/12/12 09:38:12;;;;;;;5.03;4.13;;;7.80;99.90;;;;;;4948878;28;20106;-69
2021/12/12 09:41:06;;;;;;;4.43;3.47;;;7.90;99.90;;;;;;4951393;28;20047;-67
2021/12/12 09:43:59;;;;;;;6.40;4.10;;;7.90;99.90;;;;;;4954951;28;20438;-69
2021/12/12 09:47:10;;;;;;;4.60;3.90;;;7.90;99.90;;;;;;4951699;28;20026;-67
2021/12/12 09:53:21;;;;;;;7.13;5.03;;;7.90;99.90;;;;;;4926041;28;20031;-67
2021/12/12 09:55:58;;;;;;;8.65;5.45;;;8.10;99.90;;;;;;4952840;28;20031;-67
2021/12/12 09:58:40;;;;;;;8.90;5.95;;;8.20;99.90;;;;;;4952462;28;20486;-68
2021/12/12 10:01:42;;;;;;;4.55;4.07;;;8.30;99.90;;;;;;4951449;28;20070;-69
2021/12/12 10:04:23;;;;;;;5.57;4.25;;;8.50;99.90;;;;;;4952628;28;20027;-67
2021/12/12 10:07:13;;;;;;;5.65;4.70;;;8.60;99.90;;;;;;4951866;28;20058;-68
2021/12/12 10:10:01;;;;;;;6.55;3.58;;;8.60;99.90;;;;;;4950812;28;20033;-67
2021/12/12 10:12:33;;;;;;;4.55;4.15;;;8.60;99.90;;;;;;4954514;28;20023;-69
2021/12/12 10:14:58;;;;;;;6.65;3.58;;;8.70;99.90;;;;;;4953227;28;20024;-67
2021/12/12 10:17:33;;;;;;;5.65;3.15;;;8.70;99.90;;;;;;4949889;28;20070;-67
2021/12/12 10:20:12;;;;;;;3.65;3.13;;;8.70;99.90;;;;;;4951279;28;20027;-67
2021/12/12 10:22:56;;;;;;;4.90;2.65;;;8.80;99.90;;;;;;4950989;28;20028;-67
2021/12/12 10:25:27;;;;;;;4.05;3.20;;;8.90;99.90;;;;;;4950872;28;20093;-68
2021/12/12 10:28:19;;;;;;;5.10;4.20;;;8.80;99.90;;;;;;4951019;28;20086;-69
2021/12/12 10:31:13;;;;;;;4.57;3.70;;;8.70;99.90;;;;;;4948652;28;20028;-66
2021/12/12 10:33:48;;;;;;;7.07;3.60;;;8.60;99.90;;;;;;4962690;28;20051;-66
2021/12/12 10:36:36;;;;;;;8.30;3.42;;;8.60;99.90;;;;;;4948658;28;20027;-68
2021/12/12 10:39:24;;;;;;;3.88;3.45;;;8.60;99.90;;;;;;4946691;28;20090;-68
2021/12/12 10:42:01;;;;;;;4.35;2.85;;;8.80;99.90;;;;;;4948785;28;20031;-67
2021/12/12 10:44:36;;;;;;;4.95;3.97;;;8.70;99.90;;;;;;4975163;28;20169;-68
2021/12/12 10:47:11;;;;;;;7.75;4.20;;;8.70;99.90;;;;;;4948464;28;20038;-67
2021/12/12 10:50:14;;;;;;;3.72;3.33;;;8.70;99.90;;;;;;4946315;28;20043;-66
2021/12/12 10:53:17;;;;;;;3.85;3.45;;;8.70;99.90;;;;;;4951020;28;20023;-67
2021/12/12 10:55:54;;;;;;;9.30;3.67;;;8.70;99.90;;;;;;4949631;28;20038;-67
2021/12/12 10:58:36;;;;;;;4.75;4.22;;;8.70;99.90;;;;;;4950680;28;20043;-67
2021/12/12 11:01:18;;;;;;;4.78;4.15;;;8.70;99.90;;;;;;4946515;28;20031;-67
2021/12/12 11:03:49;;;;;;;5.45;4.60;;;8.80;99.90;;;;;;4949290;28;20039;-67
2021/12/12 11:06:22;;;;;;;4.25;3.33;;;8.80;99.90;;;;;;4950394;28;20028;-67
2021/12/12 11:08:50;;;;;;;4.57;4.07;;;8.80;99.90;;;;;;4948718;28;20023;-69
2021/12/12 11:11:20;;;;;;;4.82;4.25;;;8.80;99.90;;;;;;4948432;28;20361;-69
2021/12/12 11:14:01;;;;;;;3.88;3.50;;;8.90;99.90;;;;;;4948984;28;20564;-70
2021/12/12 11:16:47;;;;;;;3.65;3.35;;;8.80;99.90;;;;;;4941160;28;20510;-66
2021/12/12 11:19:20;;;;;;;5.88;3.90;;;8.90;99.90;;;;;;4949026;28;20024;-66
2021/12/12 11:21:50;;;;;;;5.03;4.50;;;9.00;99.90;;;;;;4947400;29;20050;-67
2021/12/12 11:24:24;;;;;;;4.13;3.63;;;9.00;99.90;;;;;;4950707;28;20027;-66
2021/12/12 11:26:59;;;;;;;7.95;4.65;;;9.20;99.90;;;;;;4950966;28;20059;-68
2021/12/12 11:29:35;;;;;;;7.28;6.47;;;9.30;99.90;;;;;;4950235;28;20486;-68
2021/12/12 11:32:05;;;;;;;8.40;5.80;;;9.40;99.90;;;;;;4950294;28;20039;-69
2021/12/12 11:34:32;;;;;;;8.18;5.47;;;9.50;99.90;;;;;;4952127;28;20054;-70
2021/12/12 11:37:30;;;;;;;8.82;5.07;;;9.50;99.90;;;;;;4952931;28;20120;-69
2021/12/12 11:40:05;;;;;;;6.35;5.55;;;9.50;99.90;;;;;;4954052;28;20027;-70
2021/12/12 11:43:02;;;;;;;4.72;3.88;;;9.40;99.90;;;;;;4952381;28;20042;-67
2021/12/12 11:45:30;;;;;;;6.43;4.53;;;9.40;99.90;;;;;;4937759;28;20066;-66
2021/12/12 11:48:17;;;;;;;4.55;4.15;;;9.40;99.90;;;;;;4948513;28;20020;-68
2021/12/12 11:50:58;;;;;;;4.78;4.28;;;9.50;99.90;;;;;;4945834;28;20179;-66
2021/12/12 11:53:40;;;;;;;5.55;4.13;;;9.60;99.90;;;;;;4954274;28;20071;-66
2021/12/12 11:56:06;;;;;;;;;;;9.60;99.90;;;;;;4954281;28;20154;-66
2021/12/12 11:58:39;;;;;;;6.75;5.70;;;9.60;99.90;;;;;;4953794;28;20431;-67
2021/12/12 12:01:11;;;;;;;5.30;4.18;;;9.60;99.90;;;;;;4950081;28;20090;-67
2021/12/12 12:03:49;;;;;;;4.55;3.97;;;9.50;99.90;;;;;;4974884;28;20031;-67
2021/12/12 12:06:33;;;;;;;5.22;3.63;;;9.50;99.90;;;;;;4950896;28;20028;-65
2021/12/12 12:09:33;;;;;;;3.65;3.22;;;9.50;99.90;;;;;;4951425;28;20031;-68
2021/12/12 12:12:10;;;;;;;4.53;3.40;;;9.60;99.90;;;;;;4949009;28;20210;-66
2021/12/12 12:14:39;;;;;;;7.97;3.67;;;9.60;99.90;;;;;;4953967;28;20105;-66
2021/12/12 12:17:57;;;;;;;4.10;3.67;;;9.60;99.90;;;;;;4953497;28;20045;-66
2021/12/12 12:20:23;;;;;;;4.55;4.15;;;9.70;99.90;;;;;;4932407;29;20118;-66
2021/12/12 12:22:58;;;;;;;4.78;3.70;;;9.80;99.90;;;;;;4931780;29;20115;-70
2021/12/12 12:28:29;;;;;;;6.43;4.65;;;9.90;99.90;;;;;;4949173;28;20106;-69
2021/12/12 12:31:01;;;;;;;5.10;4.05;;;9.80;99.90;;;;;;4945666;28;20019;-64
2021/12/12 12:34:04;;;;;;;5.00;3.45;;;9.90;99.90;;;;;;4950292;28;20027;-67
2021/12/12 12:36:48;;;;;;;6.43;3.88;;;10.00;99.90;;;;;;4949502;28;20114;-64
2021/12/12 12:39:17;;;;;;;5.10;4.22;;;9.90;99.90;;;;;;4949619;28;20023;-65
2021/12/12 12:42:09;;;;;;;5.63;4.72;;;9.90;99.90;;;;;;4951732;28;20118;-67
2021/12/12 12:44:56;;;;;;;4.35;3.42;;;10.00;99.90;;;;;;4945169;28;20490;-66
2021/12/12 12:47:40;;;;;;;6.60;5.28;;;10.00;99.90;;;;;;4952649;28;20031;-65
2021/12/12 12:50:40;;;;;;;6.78;5.10;;;9.90;99.90;;;;;;4951825;28;20359;-63
2021/12/12 12:53:54;;;;;;;7.03;6.03;;;10.00;99.90;;;;;;4949805;28;20033;-65
2021/12/12 12:56:41;;;;;;;7.15;5.28;;;10.00;99.90;;;;;;4952553;28;20067;-66
2021/12/12 12:59:19;;;;;;;7.05;4.95;;;10.10;99.90;;;;;;4951709;28;20031;-68
2021/12/12 13:02:02;;;;;;;7.05;6.18;;;10.20;99.90;;;;;;4951789;28;20114;-68
2021/12/12 13:04:35;;;;;;;5.25;4.57;;;10.40;99.90;;;;;;4948956;28;20030;-67
2021/12/12 13:07:08;;;;;;;5.45;4.95;;;10.50;99.90;;;;;;4950432;29;20547;-65
2021/12/12 13:09:37;;;;;;;5.28;4.80;;;10.50;99.90;;;;;;4949938;28;20046;-68
2021/12/12 13:12:50;;;;;;;7.53;4.50;;;10.40;99.90;;;;;;4952755;28;20035;-65
2021/12/12 13:15:43;;;;;;;5.88;4.53;;;10.40;99.90;;;;;;4910645;29;20040;-65
2021/12/12 13:18:20;;;;;;;6.10;5.15;;;10.20;99.90;;;;;;4951625;28;20039;-66
2021/12/12 13:21:15;;;;;;;5.38;4.72;;;10.20;99.90;;;;;;4951764;28;20070;-64
2021/12/12 13:24:02;;;;;;;6.35;4.60;;;10.10;99.90;;;;;;4967043;28;20390;-64
2021/12/12 13:26:54;;;;;;;5.50;4.80;;;10.20;99.90;;;;;;4951002;28;20078;-67
2021/12/12 13:29:50;;;;;;;7.13;4.55;;;10.20;99.90;;;;;;4951109;28;20079;-64
2021/12/12 13:32:35;;;;;;;6.43;5.25;;;10.10;99.90;;;;;;4941289;28;20039;-67
2021/12/12 13:35:17;;;;;;;5.00;4.50;;;10.00;99.90;;;;;;4950380;28;20701;-65
2021/12/12 13:38:20;;;;;;;5.13;4.63;;;9.90;99.90;;;;;;4953121;29;20031;-67
2021/12/12 13:41:08;;;;;;;5.57;5.03;;;9.80;99.90;;;;;;4950732;28;20077;-66
2021/12/12 13:43:52;;;;;;;5.82;5.13;;;9.80;99.90;;;;;;4952019;28;20031;-70
2021/12/12 13:46:39;;;;;;;7.25;6.55;;;9.80;99.90;;;;;;4950865;28;20035;-64
2021/12/12 13:49:17;;;;;;;7.38;5.70;;;9.80;99.90;;;;;;4945085;28;20126;-67
2021/12/12 13:51:57;;;;;;;6.47;5.53;;;9.80;99.90;;;;;;4952840;28;20441;-64
2021/12/12 13:54:24;;;;;;;6.35;5.45;;;9.70;99.90;;;;;;4951474;28;20193;-65
2021/12/12 13:57:16;;;;;;;6.88;6.18;;;9.60;99.90;;;;;;4950894;28;20031;-65
2021/12/12 14:00:05;;;;;;;7.05;5.18;;;9.60;99.90;;;;;;4951969;28;20035;-65
2021/12/12 14:02:32;;;;;;;7.88;4.68;;;9.40;99.90;;;;;;4950721;28;20135;-67